sensor_id;sensor_type;location;lat;lon;timestamp;P1;durP1;ratioP1;P2;durP2;ratioP2
59338;SDS011;45117;50.960;5.500;2023-02-28T00:01:27;10.25;;;5.38;;
59338;SDS011;45117;50.960;5.500;2023-02-28T00:03:54;10.10;;;5.00;;
59338;SDS011;45117;50.960;5.500;2023-02-28T00:06:20;11.20;;;5.00;;
59338;SDS011;45117;50.960;5.500;2023-02-28T00:08:47;11.98;;;5.80;;
59338;SDS011;45117;50.960;5.500;2023-02-28T00:11:16;9.90;;;5.80;;
59338;SDS011;45117;50.960;5.500;2023-02-28T00:13:44;8.07;;;4.97;;
59338;SDS011;45117;50.960;5.500;2023-02-28T00:16:14;9.15;;;5.50;;
59338;SDS011;45117;50.960;5.500;2023-02-28T00:18:42;11.07;;;5.50;;
59338;SDS011;45117;50.960;5.500;2023-02-28T00:21:09;11.27;;;5.43;;
59338;SDS011;45117;50.960;5.500;2023-02-28T00:23:36;12.57;;;5.30;;
59338;SDS011;45117;50.960;5.500;2023-02-28T00:26:03;9.65;;;5.28;;
59338;SDS011;45117;50.960;5.500;2023-02-28T00:28:30;10.95;;;5.38;;
59338;SDS011;45117;50.960;5.500;2023-02-28T00:30:56;10.15;;;5.55;;
59338;SDS011;45117;50.960;5.500;2023-02-28T00:33:26;11.90;;;5.90;;
59338;SDS011;45117;50.960;5.500;2023-02-28T00:36:00;11.88;;;5.97;;
59338;SDS011;45117;50.960;5.500;2023-02-28T00:38:28;8.85;;;6.15;;
59338;SDS011;45117;50.960;5.500;2023-02-28T00:40:55;9.93;;;5.43;;
59338;SDS011;45117;50.960;5.500;2023-02-28T00:43:21;9.18;;;5.22;;
59338;SDS011;45117;50.960;5.500;2023-02-28T00:45:48;13.23;;;6.18;;
59338;SDS011;45117;50.960;5.500;2023-02-28T00:48:14;11.57;;;5.60;;
59338;SDS011;45117;50.960;5.500;2023-02-28T00:50:42;10.38;;;5.70;;
59338;SDS011;45117;50.960;5.500;2023-02-28T00:53:09;13.98;;;5.80;;
59338;SDS011;45117;50.960;5.500;2023-02-28T00:55:35;9.43;;;5.20;;
59338;SDS011;45117;50.960;5.500;2023-02-28T00:58:02;11.00;;;5.50;;
59338;SDS011;45117;50.960;5.500;2023-02-28T01:00:28;10.63;;;5.50;;
59338;SDS011;45117;50.960;5.500;2023-02-28T01:02:55;10.73;;;5.40;;
59338;SDS011;45117;50.960;5.500;2023-02-28T01:05:21;9.93;;;5.60;;
59338;SDS011;45117;50.960;5.500;2023-02-28T01:07:49;12.55;;;5.88;;
59338;SDS011;45117;50.960;5.500;2023-02-28T01:10:16;11.13;;;5.70;;
59338;SDS011;45117;50.960;5.500;2023-02-28T01:12:42;10.93;;;5.47;;
59338;SDS011;45117;50.960;5.500;2023-02-28T01:15:09;10.07;;;5.75;;
59338;SDS011;45117;50.960;5.500;2023-02-28T01:17:36;11.40;;;5.78;;
59338;SDS011;45117;50.960;5.500;2023-02-28T01:20:03;10.63;;;5.95;;
59338;SDS011;45117;50.960;5.500;2023-02-28T01:22:30;12.93;;;6.00;;
59338;SDS011;45117;50.960;5.500;2023-02-28T01:24:58;11.15;;;5.80;;
59338;SDS011;45117;50.960;5.500;2023-02-28T01:27:24;10.68;;;6.50;;
59338;SDS011;45117;50.960;5.500;2023-02-28T01:29:51;14.77;;;6.20;;
59338;SDS011;45117;50.960;5.500;2023-02-28T01:32:17;10.63;;;6.05;;
59338;SDS011;45117;50.960;5.500;2023-02-28T01:34:44;9.63;;;5.85;;
59338;SDS011;45117;50.960;5.500;2023-02-28T01:37:10;11.85;;;6.40;;
59338;SDS011;45117;50.960;5.500;2023-02-28T01:39:37;12.23;;;6.30;;
59338;SDS011;45117;50.960;5.500;2023-02-28T01:42:05;9.63;;;6.10;;
59338;SDS011;45117;50.960;5.500;2023-02-28T01:47:25;12.93;;;6.30;;
59338;SDS011;45117;50.960;5.500;2023-02-28T01:49:53;9.73;;;6.00;;
59338;SDS011;45117;50.960;5.500;2023-02-28T01:52:19;11.82;;;5.95;;
59338;SDS011;45117;50.960;5.500;2023-02-28T01:54:47;11.98;;;6.15;;
59338;SDS011;45117;50.960;5.500;2023-02-28T01:57:20;10.80;;;6.22;;
59338;SDS011;45117;50.960;5.500;2023-02-28T01:59:50;12.98;;;6.03;;
59338;SDS011;45117;50.960;5.500;2023-02-28T02:02:21;11.45;;;6.40;;
59338;SDS011;45117;50.960;5.500;2023-02-28T02:04:50;17.45;;;6.55;;
59338;SDS011;45117;50.960;5.500;2023-02-28T02:07:19;13.38;;;6.10;;
59338;SDS011;45117;50.960;5.500;2023-02-28T02:09:46;11.50;;;5.88;;
59338;SDS011;45117;50.960;5.500;2023-02-28T02:12:16;10.95;;;6.10;;
59338;SDS011;45117;50.960;5.500;2023-02-28T02:14:56;12.73;;;6.65;;
59338;SDS011;45117;50.960;5.500;2023-02-28T02:17:32;12.00;;;6.47;;
59338;SDS011;45117;50.960;5.500;2023-02-28T02:20:27;12.13;;;6.75;;
59338;SDS011;45117;50.960;5.500;2023-02-28T02:26:21;14.55;;;7.25;;
59338;SDS011;45117;50.960;5.500;2023-02-28T02:29:11;11.82;;;6.22;;
59338;SDS011;45117;50.960;5.500;2023-02-28T02:32:00;11.73;;;5.68;;
59338;SDS011;45117;50.960;5.500;2023-02-28T02:34:49;10.15;;;5.75;;
59338;SDS011;45117;50.960;5.500;2023-02-28T02:37:25;12.68;;;6.60;;
59338;SDS011;45117;50.960;5.500;2023-02-28T02:39:59;14.80;;;6.63;;
59338;SDS011;45117;50.960;5.500;2023-02-28T02:42:31;16.20;;;7.03;;
59338;SDS011;45117;50.960;5.500;2023-02-28T02:45:06;12.77;;;6.75;;
59338;SDS011;45117;50.960;5.500;2023-02-28T02:47:35;14.60;;;6.55;;
59338;SDS011;45117;50.960;5.500;2023-02-28T02:50:05;10.98;;;6.15;;
59338;SDS011;45117;50.960;5.500;2023-02-28T02:52:38;15.27;;;7.70;;
59338;SDS011;45117;50.960;5.500;2023-02-28T02:55:08;11.90;;;6.22;;
59338;SDS011;45117;50.960;5.500;2023-02-28T02:57:38;14.25;;;7.15;;
59338;SDS011;45117;50.960;5.500;2023-02-28T03:00:11;12.20;;;7.00;;
59338;SDS011;45117;50.960;5.500;2023-02-28T03:02:39;14.90;;;7.35;;
59338;SDS011;45117;50.960;5.500;2023-02-28T03:05:13;14.75;;;7.28;;
59338;SDS011;45117;50.960;5.500;2023-02-28T03:07:44;17.25;;;7.43;;
59338;SDS011;45117;50.960;5.500;2023-02-28T03:10:27;14.40;;;7.18;;
59338;SDS011;45117;50.960;5.500;2023-02-28T03:12:58;14.05;;;7.68;;
59338;SDS011;45117;50.960;5.500;2023-02-28T03:15:36;14.70;;;7.68;;
59338;SDS011;45117;50.960;5.500;2023-02-28T03:18:15;13.60;;;7.18;;
59338;SDS011;45117;50.960;5.500;2023-02-28T03:20:53;13.18;;;6.80;;
59338;SDS011;45117;50.960;5.500;2023-02-28T03:23:29;13.27;;;7.22;;
59338;SDS011;45117;50.960;5.500;2023-02-28T03:26:06;13.60;;;7.20;;
59338;SDS011;45117;50.960;5.500;2023-02-28T03:28:41;12.82;;;6.90;;
59338;SDS011;45117;50.960;5.500;2023-02-28T03:31:15;15.25;;;7.53;;
59338;SDS011;45117;50.960;5.500;2023-02-28T03:33:46;11.10;;;6.88;;
59338;SDS011;45117;50.960;5.500;2023-02-28T03:36:21;15.52;;;7.93;;
59338;SDS011;45117;50.960;5.500;2023-02-28T03:38:51;11.73;;;7.43;;
59338;SDS011;45117;50.960;5.500;2023-02-28T03:41:24;14.10;;;7.03;;
59338;SDS011;45117;50.960;5.500;2023-02-28T03:43:56;16.08;;;7.47;;
59338;SDS011;45117;50.960;5.500;2023-02-28T03:46:25;15.00;;;7.55;;
59338;SDS011;45117;50.960;5.500;2023-02-28T03:48:55;12.80;;;7.57;;
59338;SDS011;45117;50.960;5.500;2023-02-28T03:51:29;12.77;;;7.05;;
59338;SDS011;45117;50.960;5.500;2023-02-28T03:53:58;14.63;;;7.50;;
59338;SDS011;45117;50.960;5.500;2023-02-28T03:56:30;12.48;;;7.15;;
59338;SDS011;45117;50.960;5.500;2023-02-28T03:59:00;14.63;;;8.02;;
59338;SDS011;45117;50.960;5.500;2023-02-28T04:01:32;12.48;;;6.60;;
59338;SDS011;45117;50.960;5.500;2023-02-28T04:04:01;15.80;;;8.20;;
59338;SDS011;45117;50.960;5.500;2023-02-28T04:06:30;16.50;;;7.78;;
59338;SDS011;45117;50.960;5.500;2023-02-28T04:08:59;13.50;;;7.40;;
59338;SDS011;45117;50.960;5.500;2023-02-28T04:11:27;10.80;;;6.85;;
59338;SDS011;45117;50.960;5.500;2023-02-28T04:13:59;15.70;;;8.38;;
59338;SDS011;45117;50.960;5.500;2023-02-28T04:16:27;12.63;;;7.65;;
59338;SDS011;45117;50.960;5.500;2023-02-28T04:18:53;13.27;;;7.18;;
59338;SDS011;45117;50.960;5.500;2023-02-28T04:21:27;12.55;;;7.15;;
59338;SDS011;45117;50.960;5.500;2023-02-28T04:23:55;13.90;;;7.38;;
59338;SDS011;45117;50.960;5.500;2023-02-28T04:26:25;15.48;;;8.00;;
59338;SDS011;45117;50.960;5.500;2023-02-28T04:28:53;13.95;;;7.65;;
59338;SDS011;45117;50.960;5.500;2023-02-28T04:31:20;15.90;;;8.18;;
59338;SDS011;45117;50.960;5.500;2023-02-28T04:33:47;13.85;;;7.13;;
59338;SDS011;45117;50.960;5.500;2023-02-28T04:36:13;12.65;;;7.32;;
59338;SDS011;45117;50.960;5.500;2023-02-28T04:38:42;12.10;;;7.72;;
59338;SDS011;45117;50.960;5.500;2023-02-28T04:41:11;15.60;;;7.80;;
59338;SDS011;45117;50.960;5.500;2023-02-28T04:43:38;15.90;;;7.82;;
59338;SDS011;45117;50.960;5.500;2023-02-28T04:46:05;14.45;;;7.55;;
59338;SDS011;45117;50.960;5.500;2023-02-28T04:48:32;15.88;;;8.32;;
59338;SDS011;45117;50.960;5.500;2023-02-28T04:51:01;14.50;;;8.15;;
59338;SDS011;45117;50.960;5.500;2023-02-28T04:53:28;13.80;;;8.20;;
59338;SDS011;45117;50.960;5.500;2023-02-28T04:55:55;15.73;;;7.95;;
59338;SDS011;45117;50.960;5.500;2023-02-28T04:58:23;15.48;;;8.10;;
59338;SDS011;45117;50.960;5.500;2023-02-28T05:00:51;19.42;;;8.18;;
59338;SDS011;45117;50.960;5.500;2023-02-28T05:03:18;15.45;;;8.05;;
59338;SDS011;45117;50.960;5.500;2023-02-28T05:05:45;18.65;;;8.07;;
59338;SDS011;45117;50.960;5.500;2023-02-28T05:08:12;15.23;;;8.57;;
59338;SDS011;45117;50.960;5.500;2023-02-28T05:10:39;13.88;;;7.60;;
59338;SDS011;45117;50.960;5.500;2023-02-28T05:13:06;16.60;;;7.93;;
59338;SDS011;45117;50.960;5.500;2023-02-28T05:15:34;15.65;;;8.90;;
59338;SDS011;45117;50.960;5.500;2023-02-28T05:18:00;16.30;;;8.45;;
59338;SDS011;45117;50.960;5.500;2023-02-28T05:20:27;19.00;;;9.05;;
59338;SDS011;45117;50.960;5.500;2023-02-28T05:22:53;16.55;;;9.13;;
59338;SDS011;45117;50.960;5.500;2023-02-28T05:25:21;18.33;;;8.40;;
59338;SDS011;45117;50.960;5.500;2023-02-28T05:27:48;17.73;;;8.00;;
59338;SDS011;45117;50.960;5.500;2023-02-28T05:30:15;16.00;;;8.38;;
59338;SDS011;45117;50.960;5.500;2023-02-28T05:32:43;16.17;;;8.55;;
59338;SDS011;45117;50.960;5.500;2023-02-28T05:35:10;13.75;;;7.40;;
59338;SDS011;45117;50.960;5.500;2023-02-28T05:37:37;17.45;;;8.25;;
59338;SDS011;45117;50.960;5.500;2023-02-28T05:40:05;15.45;;;7.72;;
59338;SDS011;45117;50.960;5.500;2023-02-28T05:42:35;15.15;;;8.20;;
59338;SDS011;45117;50.960;5.500;2023-02-28T05:45:02;16.05;;;7.97;;
59338;SDS011;45117;50.960;5.500;2023-02-28T05:47:29;17.10;;;8.70;;
59338;SDS011;45117;50.960;5.500;2023-02-28T05:49:57;13.75;;;8.02;;
59338;SDS011;45117;50.960;5.500;2023-02-28T05:52:23;12.75;;;7.95;;
59338;SDS011;45117;50.960;5.500;2023-02-28T05:54:50;17.85;;;8.23;;
59338;SDS011;45117;50.960;5.500;2023-02-28T05:57:17;15.88;;;7.78;;
59338;SDS011;45117;50.960;5.500;2023-02-28T05:59:43;13.23;;;7.85;;
59338;SDS011;45117;50.960;5.500;2023-02-28T06:02:10;16.23;;;8.20;;
59338;SDS011;45117;50.960;5.500;2023-02-28T06:04:39;13.45;;;7.78;;
59338;SDS011;45117;50.960;5.500;2023-02-28T06:07:08;12.95;;;7.85;;
59338;SDS011;45117;50.960;5.500;2023-02-28T06:09:35;15.32;;;7.80;;
59338;SDS011;45117;50.960;5.500;2023-02-28T06:12:03;13.13;;;7.50;;
59338;SDS011;45117;50.960;5.500;2023-02-28T06:14:32;15.40;;;7.85;;
59338;SDS011;45117;50.960;5.500;2023-02-28T06:17:00;14.88;;;7.30;;
59338;SDS011;45117;50.960;5.500;2023-02-28T06:19:26;11.90;;;6.65;;
59338;SDS011;45117;50.960;5.500;2023-02-28T06:21:55;14.07;;;7.00;;
59338;SDS011;45117;50.960;5.500;2023-02-28T06:24:24;15.27;;;7.00;;
59338;SDS011;45117;50.960;5.500;2023-02-28T06:26:53;13.60;;;6.88;;
59338;SDS011;45117;50.960;5.500;2023-02-28T06:29:19;14.05;;;7.03;;
59338;SDS011;45117;50.960;5.500;2023-02-28T06:31:46;10.18;;;6.53;;
59338;SDS011;45117;50.960;5.500;2023-02-28T06:34:13;12.52;;;6.75;;
59338;SDS011;45117;50.960;5.500;2023-02-28T06:36:40;15.95;;;7.45;;
59338;SDS011;45117;50.960;5.500;2023-02-28T06:39:07;15.38;;;7.05;;
59338;SDS011;45117;50.960;5.500;2023-02-28T06:41:36;11.23;;;6.47;;
59338;SDS011;45117;50.960;5.500;2023-02-28T06:44:05;13.02;;;7.25;;
59338;SDS011;45117;50.960;5.500;2023-02-28T06:46:38;10.98;;;6.18;;
59338;SDS011;45117;50.960;5.500;2023-02-28T06:49:05;12.95;;;6.93;;
59338;SDS011;45117;50.960;5.500;2023-02-28T06:51:34;13.25;;;6.93;;
59338;SDS011;45117;50.960;5.500;2023-02-28T06:54:02;11.05;;;6.80;;
59338;SDS011;45117;50.960;5.500;2023-02-28T06:56:29;11.80;;;6.85;;
59338;SDS011;45117;50.960;5.500;2023-02-28T06:58:57;13.40;;;6.70;;
59338;SDS011;45117;50.960;5.500;2023-02-28T07:01:23;11.50;;;6.35;;
59338;SDS011;45117;50.960;5.500;2023-02-28T07:03:50;11.43;;;6.72;;
59338;SDS011;45117;50.960;5.500;2023-02-28T07:06:18;12.02;;;6.85;;
59338;SDS011;45117;50.960;5.500;2023-02-28T07:08:44;12.73;;;6.32;;
59338;SDS011;45117;50.960;5.500;2023-02-28T07:11:11;13.80;;;6.78;;
59338;SDS011;45117;50.960;5.500;2023-02-28T07:13:38;12.77;;;6.45;;
59338;SDS011;45117;50.960;5.500;2023-02-28T07:16:08;12.88;;;6.43;;
59338;SDS011;45117;50.960;5.500;2023-02-28T07:18:37;11.27;;;6.60;;
59338;SDS011;45117;50.960;5.500;2023-02-28T07:21:04;13.07;;;6.40;;
59338;SDS011;45117;50.960;5.500;2023-02-28T07:23:32;11.10;;;6.78;;
59338;SDS011;45117;50.960;5.500;2023-02-28T07:25:59;13.82;;;6.32;;
59338;SDS011;45117;50.960;5.500;2023-02-28T07:28:26;11.40;;;5.45;;
59338;SDS011;45117;50.960;5.500;2023-02-28T07:30:52;9.02;;;5.32;;
59338;SDS011;45117;50.960;5.500;2023-02-28T07:33:20;9.88;;;5.22;;
59338;SDS011;45117;50.960;5.500;2023-02-28T07:35:48;8.15;;;4.65;;
59338;SDS011;45117;50.960;5.500;2023-02-28T07:38:15;8.65;;;5.03;;
59338;SDS011;45117;50.960;5.500;2023-02-28T07:40:42;8.70;;;4.18;;
59338;SDS011;45117;50.960;5.500;2023-02-28T07:43:08;6.90;;;4.03;;
59338;SDS011;45117;50.960;5.500;2023-02-28T07:45:35;7.07;;;4.30;;
59338;SDS011;45117;50.960;5.500;2023-02-28T07:48:01;9.07;;;4.60;;
59338;SDS011;45117;50.960;5.500;2023-02-28T07:50:29;7.88;;;4.32;;
59338;SDS011;45117;50.960;5.500;2023-02-28T07:52:56;9.63;;;4.35;;
59338;SDS011;45117;50.960;5.500;2023-02-28T07:55:23;9.30;;;4.75;;
59338;SDS011;45117;50.960;5.500;2023-02-28T07:57:50;10.88;;;4.47;;
59338;SDS011;45117;50.960;5.500;2023-02-28T08:00:16;8.65;;;4.80;;
59338;SDS011;45117;50.960;5.500;2023-02-28T08:02:43;8.25;;;4.50;;
59338;SDS011;45117;50.960;5.500;2023-02-28T08:05:10;11.05;;;4.30;;
59338;SDS011;45117;50.960;5.500;2023-02-28T08:07:38;8.45;;;4.63;;
59338;SDS011;45117;50.960;5.500;2023-02-28T08:10:05;10.00;;;4.32;;
59338;SDS011;45117;50.960;5.500;2023-02-28T08:12:33;8.40;;;4.35;;
59338;SDS011;45117;50.960;5.500;2023-02-28T08:15:00;9.05;;;4.47;;
59338;SDS011;45117;50.960;5.500;2023-02-28T08:17:26;8.35;;;3.97;;
59338;SDS011;45117;50.960;5.500;2023-02-28T08:19:53;7.10;;;3.95;;
59338;SDS011;45117;50.960;5.500;2023-02-28T08:22:20;9.07;;;4.35;;
59338;SDS011;45117;50.960;5.500;2023-02-28T08:24:48;9.32;;;4.40;;
59338;SDS011;45117;50.960;5.500;2023-02-28T08:27:14;7.88;;;3.90;;
59338;SDS011;45117;50.960;5.500;2023-02-28T08:29:41;6.88;;;4.15;;
59338;SDS011;45117;50.960;5.500;2023-02-28T08:32:07;8.73;;;4.13;;
59338;SDS011;45117;50.960;5.500;2023-02-28T08:34:34;7.07;;;4.10;;
59338;SDS011;45117;50.960;5.500;2023-02-28T08:37:00;8.82;;;4.25;;
59338;SDS011;45117;50.960;5.500;2023-02-28T08:39:27;9.63;;;4.30;;
59338;SDS011;45117;50.960;5.500;2023-02-28T08:41:54;6.95;;;3.42;;
59338;SDS011;45117;50.960;5.500;2023-02-28T08:44:21;6.28;;;3.95;;
59338;SDS011;45117;50.960;5.500;2023-02-28T08:46:47;4.95;;;3.08;;
59338;SDS011;45117;50.960;5.500;2023-02-28T08:49:14;6.55;;;3.22;;
59338;SDS011;45117;50.960;5.500;2023-02-28T08:51:40;4.97;;;3.25;;
59338;SDS011;45117;50.960;5.500;2023-02-28T08:54:07;8.00;;;3.15;;
59338;SDS011;45117;50.960;5.500;2023-02-28T08:56:35;5.88;;;3.03;;
59338;SDS011;45117;50.960;5.500;2023-02-28T08:59:03;5.22;;;2.90;;
59338;SDS011;45117;50.960;5.500;2023-02-28T09:01:30;4.93;;;2.70;;
59338;SDS011;45117;50.960;5.500;2023-02-28T09:03:57;4.82;;;2.58;;
59338;SDS011;45117;50.960;5.500;2023-02-28T09:06:25;5.05;;;2.60;;
59338;SDS011;45117;50.960;5.500;2023-02-28T09:08:52;3.65;;;2.55;;
59338;SDS011;45117;50.960;5.500;2023-02-28T09:11:23;4.30;;;2.20;;
59338;SDS011;45117;50.960;5.500;2023-02-28T09:13:49;3.92;;;2.20;;
59338;SDS011;45117;50.960;5.500;2023-02-28T09:16:17;3.58;;;2.25;;
59338;SDS011;45117;50.960;5.500;2023-02-28T09:18:44;5.80;;;2.40;;
59338;SDS011;45117;50.960;5.500;2023-02-28T09:21:11;4.40;;;2.55;;
59338;SDS011;45117;50.960;5.500;2023-02-28T09:23:39;5.80;;;2.28;;
59338;SDS011;45117;50.960;5.500;2023-02-28T09:26:06;4.93;;;2.47;;
59338;SDS011;45117;50.960;5.500;2023-02-28T09:28:33;4.18;;;2.08;;
59338;SDS011;45117;50.960;5.500;2023-02-28T09:31:00;4.20;;;2.33;;
59338;SDS011;45117;50.960;5.500;2023-02-28T09:33:28;6.45;;;2.85;;
59338;SDS011;45117;50.960;5.500;2023-02-28T09:35:59;4.03;;;2.28;;
59338;SDS011;45117;50.960;5.500;2023-02-28T09:38:27;4.00;;;2.20;;
59338;SDS011;45117;50.960;5.500;2023-02-28T09:40:54;4.53;;;1.90;;
59338;SDS011;45117;50.960;5.500;2023-02-28T09:43:23;4.57;;;1.92;;
59338;SDS011;45117;50.960;5.500;2023-02-28T09:45:54;3.30;;;2.05;;
59338;SDS011;45117;50.960;5.500;2023-02-28T09:48:25;4.18;;;2.28;;
59338;SDS011;45117;50.960;5.500;2023-02-28T09:50:59;3.70;;;2.17;;
59338;SDS011;45117;50.960;5.500;2023-02-28T09:53:29;3.22;;;2.10;;
59338;SDS011;45117;50.960;5.500;2023-02-28T09:55:59;7.25;;;2.38;;
59338;SDS011;45117;50.960;5.500;2023-02-28T09:58:31;3.10;;;2.22;;
59338;SDS011;45117;50.960;5.500;2023-02-28T10:01:02;4.68;;;1.95;;
59338;SDS011;45117;50.960;5.500;2023-02-28T10:03:34;3.42;;;2.10;;
59338;SDS011;45117;50.960;5.500;2023-02-28T10:06:06;3.55;;;2.17;;
59338;SDS011;45117;50.960;5.500;2023-02-28T10:08:39;4.15;;;2.22;;
59338;SDS011;45117;50.960;5.500;2023-02-28T10:11:11;6.00;;;2.55;;
59338;SDS011;45117;50.960;5.500;2023-02-28T10:13:45;3.45;;;2.08;;
59338;SDS011;45117;50.960;5.500;2023-02-28T10:16:20;5.03;;;2.38;;
59338;SDS011;45117;50.960;5.500;2023-02-28T10:18:54;5.75;;;2.40;;
59338;SDS011;45117;50.960;5.500;2023-02-28T10:21:24;3.55;;;1.98;;
59338;SDS011;45117;50.960;5.500;2023-02-28T10:23:56;2.80;;;2.05;;
59338;SDS011;45117;50.960;5.500;2023-02-28T10:26:28;2.42;;;1.90;;
59338;SDS011;45117;50.960;5.500;2023-02-28T10:28:57;3.95;;;1.95;;
59338;SDS011;45117;50.960;5.500;2023-02-28T10:31:25;2.83;;;1.98;;
59338;SDS011;45117;50.960;5.500;2023-02-28T10:33:53;3.13;;;1.90;;
59338;SDS011;45117;50.960;5.500;2023-02-28T10:36:20;2.38;;;1.60;;
59338;SDS011;45117;50.960;5.500;2023-02-28T10:38:48;3.97;;;1.60;;
59338;SDS011;45117;50.960;5.500;2023-02-28T10:41:16;3.00;;;1.50;;
59338;SDS011;45117;50.960;5.500;2023-02-28T10:43:53;3.03;;;1.92;;
59338;SDS011;45117;50.960;5.500;2023-02-28T10:46:39;2.75;;;1.88;;
59338;SDS011;45117;50.960;5.500;2023-02-28T10:49:11;4.50;;;1.90;;
59338;SDS011;45117;50.960;5.500;2023-02-28T10:51:40;2.67;;;1.83;;
59338;SDS011;45117;50.960;5.500;2023-02-28T10:54:14;3.72;;;1.58;;
59338;SDS011;45117;50.960;5.500;2023-02-28T10:56:42;2.70;;;1.45;;
59338;SDS011;45117;50.960;5.500;2023-02-28T10:59:22;2.40;;;1.63;;
59338;SDS011;45117;50.960;5.500;2023-02-28T11:01:53;2.45;;;1.48;;
59338;SDS011;45117;50.960;5.500;2023-02-28T11:04:33;3.85;;;1.65;;
59338;SDS011;45117;50.960;5.500;2023-02-28T11:07:03;2.72;;;1.83;;
59338;SDS011;45117;50.960;5.500;2023-02-28T11:09:32;2.38;;;1.50;;
59338;SDS011;45117;50.960;5.500;2023-02-28T11:12:01;2.95;;;1.80;;
59338;SDS011;45117;50.960;5.500;2023-02-28T11:14:31;5.25;;;2.03;;
59338;SDS011;45117;50.960;5.500;2023-02-28T11:17:00;5.88;;;2.60;;
59338;SDS011;45117;50.960;5.500;2023-02-28T11:19:39;3.72;;;2.10;;
59338;SDS011;45117;50.960;5.500;2023-02-28T11:22:15;2.72;;;1.85;;
59338;SDS011;45117;50.960;5.500;2023-02-28T11:24:45;3.67;;;1.60;;
59338;SDS011;45117;50.960;5.500;2023-02-28T11:27:25;3.28;;;1.60;;
59338;SDS011;45117;50.960;5.500;2023-02-28T11:30:13;3.00;;;1.52;;
59338;SDS011;45117;50.960;5.500;2023-02-28T11:32:50;4.55;;;1.60;;
59338;SDS011;45117;50.960;5.500;2023-02-28T11:35:18;2.65;;;1.85;;
59338;SDS011;45117;50.960;5.500;2023-02-28T11:37:49;3.55;;;1.95;;
59338;SDS011;45117;50.960;5.500;2023-02-28T11:40:17;2.15;;;1.58;;
59338;SDS011;45117;50.960;5.500;2023-02-28T11:42:54;3.15;;;1.80;;
59338;SDS011;45117;50.960;5.500;2023-02-28T11:45:34;2.85;;;1.70;;
59338;SDS011;45117;50.960;5.500;2023-02-28T11:48:13;6.55;;;1.80;;
59338;SDS011;45117;50.960;5.500;2023-02-28T11:50:51;2.00;;;1.52;;
59338;SDS011;45117;50.960;5.500;2023-02-28T11:53:31;2.42;;;1.60;;
59338;SDS011;45117;50.960;5.500;2023-02-28T11:56:12;2.58;;;1.40;;
59338;SDS011;45117;50.960;5.500;2023-02-28T11:58:47;3.40;;;1.70;;
59338;SDS011;45117;50.960;5.500;2023-02-28T12:07:39;3.13;;;1.90;;
59338;SDS011;45117;50.960;5.500;2023-02-28T12:10:17;5.20;;;1.98;;
59338;SDS011;45117;50.960;5.500;2023-02-28T12:12:49;4.32;;;2.00;;
59338;SDS011;45117;50.960;5.500;2023-02-28T12:15:31;4.40;;;1.98;;
59338;SDS011;45117;50.960;5.500;2023-02-28T12:18:23;3.72;;;2.00;;
59338;SDS011;45117;50.960;5.500;2023-02-28T12:20:59;3.70;;;2.30;;
59338;SDS011;45117;50.960;5.500;2023-02-28T12:23:41;3.03;;;1.90;;
59338;SDS011;45117;50.960;5.500;2023-02-28T12:26:16;3.90;;;1.60;;
59338;SDS011;45117;50.960;5.500;2023-02-28T12:28:49;3.08;;;2.17;;
59338;SDS011;45117;50.960;5.500;2023-02-28T12:31:20;2.92;;;1.83;;
59338;SDS011;45117;50.960;5.500;2023-02-28T12:33:50;4.07;;;1.92;;
59338;SDS011;45117;50.960;5.500;2023-02-28T12:36:19;3.42;;;2.10;;
59338;SDS011;45117;50.960;5.500;2023-02-28T12:38:50;5.53;;;1.92;;
59338;SDS011;45117;50.960;5.500;2023-02-28T12:41:23;2.65;;;2.10;;
59338;SDS011;45117;50.960;5.500;2023-02-28T12:43:58;2.42;;;1.98;;
59338;SDS011;45117;50.960;5.500;2023-02-28T12:46:29;2.95;;;1.77;;
59338;SDS011;45117;50.960;5.500;2023-02-28T12:48:59;3.85;;;2.10;;
59338;SDS011;45117;50.960;5.500;2023-02-28T12:51:30;4.43;;;2.20;;
59338;SDS011;45117;50.960;5.500;2023-02-28T12:54:02;3.10;;;1.60;;
59338;SDS011;45117;50.960;5.500;2023-02-28T12:56:38;5.00;;;2.63;;
59338;SDS011;45117;50.960;5.500;2023-02-28T12:59:13;7.60;;;3.30;;
59338;SDS011;45117;50.960;5.500;2023-02-28T13:01:58;4.72;;;2.08;;
59338;SDS011;45117;50.960;5.500;2023-02-28T13:04:52;9.10;;;2.53;;
59338;SDS011;45117;50.960;5.500;2023-02-28T13:07:33;4.13;;;2.70;;
59338;SDS011;45117;50.960;5.500;2023-02-28T13:10:38;4.10;;;2.47;;
59338;SDS011;45117;50.960;5.500;2023-02-28T13:13:11;6.18;;;2.80;;
59338;SDS011;45117;50.960;5.500;2023-02-28T13:15:41;4.30;;;2.47;;
59338;SDS011;45117;50.960;5.500;2023-02-28T13:18:27;4.15;;;2.58;;
59338;SDS011;45117;50.960;5.500;2023-02-28T13:20:56;4.90;;;2.65;;
59338;SDS011;45117;50.960;5.500;2023-02-28T13:23:36;4.22;;;2.50;;
59338;SDS011;45117;50.960;5.500;2023-02-28T13:26:06;3.30;;;2.30;;
59338;SDS011;45117;50.960;5.500;2023-02-28T13:34:47;5.07;;;2.60;;
59338;SDS011;45117;50.960;5.500;2023-02-28T13:37:41;3.05;;;2.33;;
59338;SDS011;45117;50.960;5.500;2023-02-28T13:40:29;2.50;;;2.10;;
59338;SDS011;45117;50.960;5.500;2023-02-28T13:43:03;2.88;;;2.13;;
59338;SDS011;45117;50.960;5.500;2023-02-28T13:45:34;2.80;;;2.20;;
59338;SDS011;45117;50.960;5.500;2023-02-28T13:48:03;4.50;;;2.10;;
59338;SDS011;45117;50.960;5.500;2023-02-28T13:50:32;5.25;;;2.30;;
59338;SDS011;45117;50.960;5.500;2023-02-28T13:56:06;4.13;;;2.72;;
59338;SDS011;45117;50.960;5.500;2023-02-28T13:58:48;3.92;;;2.30;;
59338;SDS011;45117;50.960;5.500;2023-02-28T14:01:26;5.40;;;2.60;;
59338;SDS011;45117;50.960;5.500;2023-02-28T14:04:12;6.57;;;2.50;;
59338;SDS011;45117;50.960;5.500;2023-02-28T14:06:52;3.65;;;2.40;;
59338;SDS011;45117;50.960;5.500;2023-02-28T14:09:21;4.18;;;2.33;;
59338;SDS011;45117;50.960;5.500;2023-02-28T14:11:51;5.32;;;2.65;;
59338;SDS011;45117;50.960;5.500;2023-02-28T14:17:23;3.45;;;2.45;;
59338;SDS011;45117;50.960;5.500;2023-02-28T14:19:51;4.13;;;2.30;;
59338;SDS011;45117;50.960;5.500;2023-02-28T14:22:32;3.65;;;2.45;;
59338;SDS011;45117;50.960;5.500;2023-02-28T14:25:17;3.63;;;2.30;;
59338;SDS011;45117;50.960;5.500;2023-02-28T14:27:49;4.93;;;2.60;;
59338;SDS011;45117;50.960;5.500;2023-02-28T14:30:42;6.45;;;2.90;;
59338;SDS011;45117;50.960;5.500;2023-02-28T14:33:20;3.10;;;2.10;;
59338;SDS011;45117;50.960;5.500;2023-02-28T14:35:58;3.78;;;2.33;;
59338;SDS011;45117;50.960;5.500;2023-02-28T14:38:29;4.13;;;2.20;;
59338;SDS011;45117;50.960;5.500;2023-02-28T14:40:58;5.07;;;2.50;;
59338;SDS011;45117;50.960;5.500;2023-02-28T14:43:29;4.20;;;2.22;;
59338;SDS011;45117;50.960;5.500;2023-02-28T14:45:57;3.90;;;2.30;;
59338;SDS011;45117;50.960;5.500;2023-02-28T14:48:25;3.80;;;2.50;;
59338;SDS011;45117;50.960;5.500;2023-02-28T14:50:53;4.70;;;2.38;;
59338;SDS011;45117;50.960;5.500;2023-02-28T14:53:22;3.38;;;2.10;;
59338;SDS011;45117;50.960;5.500;2023-02-28T14:55:51;4.15;;;2.17;;
59338;SDS011;45117;50.960;5.500;2023-02-28T14:58:21;3.17;;;2.13;;
59338;SDS011;45117;50.960;5.500;2023-02-28T15:00:50;3.92;;;2.20;;
59338;SDS011;45117;50.960;5.500;2023-02-28T15:03:20;3.00;;;2.38;;
59338;SDS011;45117;50.960;5.500;2023-02-28T15:05:52;3.55;;;2.47;;
59338;SDS011;45117;50.960;5.500;2023-02-28T15:08:21;5.60;;;2.30;;
59338;SDS011;45117;50.960;5.500;2023-02-28T15:10:51;3.53;;;2.25;;
59338;SDS011;45117;50.960;5.500;2023-02-28T15:13:20;5.43;;;2.70;;
59338;SDS011;45117;50.960;5.500;2023-02-28T15:15:48;3.03;;;1.92;;
59338;SDS011;45117;50.960;5.500;2023-02-28T15:18:23;3.00;;;2.08;;
59338;SDS011;45117;50.960;5.500;2023-02-28T15:20:56;3.63;;;2.55;;
59338;SDS011;45117;50.960;5.500;2023-02-28T15:23:26;3.88;;;2.40;;
59338;SDS011;45117;50.960;5.500;2023-02-28T15:25:52;4.30;;;2.65;;